sensor_id;sensor_type;location;lat;lon;timestamp;P1;durP1;ratioP1;P2;durP2;ratioP2
23390;SDS011;11868;45.606;5.302;2024-02-15T00:02:12;9.30;;;6.32;;
23390;SDS011;11868;45.606;5.302;2024-02-15T00:04:38;12.63;;;6.88;;
23390;SDS011;11868;45.606;5.302;2024-02-15T00:07:03;13.60;;;6.32;;
23390;SDS011;11868;45.606;5.302;2024-02-15T00:09:29;11.07;;;6.30;;
23390;SDS011;11868;45.606;5.302;2024-02-15T00:11:54;9.57;;;6.03;;
23390;SDS011;11868;45.606;5.302;2024-02-15T00:14:19;10.07;;;6.00;;
23390;SDS011;11868;45.606;5.302;2024-02-15T00:16:45;18.35;;;6.50;;
23390;SDS011;11868;45.606;5.302;2024-02-15T00:19:10;8.25;;;5.97;;
23390;SDS011;11868;45.606;5.302;2024-02-15T00:21:36;10.48;;;6.57;;
23390;SDS011;11868;45.606;5.302;2024-02-15T00:24:01;9.80;;;6.40;;
23390;SDS011;11868;45.606;5.302;2024-02-15T00:26:27;9.82;;;5.95;;
23390;SDS011;11868;45.606;5.302;2024-02-15T00:28:52;11.18;;;6.15;;
23390;SDS011;11868;45.606;5.302;2024-02-15T00:31:17;9.45;;;5.90;;
23390;SDS011;11868;45.606;5.302;2024-02-15T00:33:43;11.52;;;6.40;;
23390;SDS011;11868;45.606;5.302;2024-02-15T00:36:09;8.60;;;5.82;;
23390;SDS011;11868;45.606;5.302;2024-02-15T00:38:35;14.23;;;7.25;;
23390;SDS011;11868;45.606;5.302;2024-02-15T00:41:00;10.95;;;7.45;;
23390;SDS011;11868;45.606;5.302;2024-02-15T00:43:29;9.02;;;5.78;;
23390;SDS011;11868;45.606;5.302;2024-02-15T00:45:54;7.68;;;5.10;;
23390;SDS011;11868;45.606;5.302;2024-02-15T00:48:20;9.70;;;5.90;;
23390;SDS011;11868;45.606;5.302;2024-02-15T00:50:45;11.13;;;6.20;;
23390;SDS011;11868;45.606;5.302;2024-02-15T00:53:10;10.45;;;5.82;;
23390;SDS011;11868;45.606;5.302;2024-02-15T00:55:36;9.55;;;6.13;;
23390;SDS011;11868;45.606;5.302;2024-02-15T00:58:01;8.73;;;5.55;;
23390;SDS011;11868;45.606;5.302;2024-02-15T01:00:27;13.77;;;5.90;;
23390;SDS011;11868;45.606;5.302;2024-02-15T01:02:53;9.45;;;5.25;;
23390;SDS011;11868;45.606;5.302;2024-02-15T01:05:19;10.77;;;5.50;;
23390;SDS011;11868;45.606;5.302;2024-02-15T01:07:45;7.47;;;4.55;;
23390;SDS011;11868;45.606;5.302;2024-02-15T01:10:10;7.38;;;4.75;;
23390;SDS011;11868;45.606;5.302;2024-02-15T01:12:36;7.88;;;5.18;;
23390;SDS011;11868;45.606;5.302;2024-02-15T01:15:01;8.95;;;4.20;;
23390;SDS011;11868;45.606;5.302;2024-02-15T01:17:27;5.75;;;3.60;;
23390;SDS011;11868;45.606;5.302;2024-02-15T01:19:53;5.80;;;3.55;;
23390;SDS011;11868;45.606;5.302;2024-02-15T01:22:18;6.15;;;3.60;;
23390;SDS011;11868;45.606;5.302;2024-02-15T01:24:43;6.40;;;3.35;;
23390;SDS011;11868;45.606;5.302;2024-02-15T01:27:10;6.57;;;3.40;;
23390;SDS011;11868;45.606;5.302;2024-02-15T01:29:35;6.03;;;3.33;;
23390;SDS011;11868;45.606;5.302;2024-02-15T01:32:01;4.38;;;2.70;;
23390;SDS011;11868;45.606;5.302;2024-02-15T01:34:27;3.92;;;2.70;;
23390;SDS011;11868;45.606;5.302;2024-02-15T01:36:53;5.65;;;3.20;;
23390;SDS011;11868;45.606;5.302;2024-02-15T01:39:18;6.30;;;2.70;;
23390;SDS011;11868;45.606;5.302;2024-02-15T01:41:47;4.75;;;3.08;;
23390;SDS011;11868;45.606;5.302;2024-02-15T01:44:15;5.40;;;3.13;;
23390;SDS011;11868;45.606;5.302;2024-02-15T01:46:41;6.70;;;3.90;;
23390;SDS011;11868;45.606;5.302;2024-02-15T01:49:06;7.63;;;3.60;;
23390;SDS011;11868;45.606;5.302;2024-02-15T01:51:32;5.28;;;2.97;;
23390;SDS011;11868;45.606;5.302;2024-02-15T01:54:00;5.45;;;2.90;;
23390;SDS011;11868;45.606;5.302;2024-02-15T01:56:26;4.85;;;3.45;;
23390;SDS011;11868;45.606;5.302;2024-02-15T01:58:52;4.90;;;2.95;;
23390;SDS011;11868;45.606;5.302;2024-02-15T02:01:18;6.80;;;3.47;;
23390;SDS011;11868;45.606;5.302;2024-02-15T02:03:43;5.60;;;3.88;;
23390;SDS011;11868;45.606;5.302;2024-02-15T02:06:09;4.40;;;3.40;;
23390;SDS011;11868;45.606;5.302;2024-02-15T02:08:35;8.25;;;3.47;;
23390;SDS011;11868;45.606;5.302;2024-02-15T02:11:00;7.85;;;3.47;;
23390;SDS011;11868;45.606;5.302;2024-02-15T02:13:26;7.88;;;4.22;;
23390;SDS011;11868;45.606;5.302;2024-02-15T02:15:52;9.35;;;4.03;;
23390;SDS011;11868;45.606;5.302;2024-02-15T02:18:17;11.10;;;3.92;;
23390;SDS011;11868;45.606;5.302;2024-02-15T02:20:43;5.35;;;3.55;;
23390;SDS011;11868;45.606;5.302;2024-02-15T02:23:15;6.85;;;3.38;;
23390;SDS011;11868;45.606;5.302;2024-02-15T02:25:43;6.43;;;3.80;;
23390;SDS011;11868;45.606;5.302;2024-02-15T02:28:09;9.27;;;4.10;;
23390;SDS011;11868;45.606;5.302;2024-02-15T02:30:35;8.05;;;3.97;;
23390;SDS011;11868;45.606;5.302;2024-02-15T02:33:00;15.88;;;4.30;;
23390;SDS011;11868;45.606;5.302;2024-02-15T02:35:27;7.55;;;4.47;;
23390;SDS011;11868;45.606;5.302;2024-02-15T02:37:54;7.18;;;4.38;;
23390;SDS011;11868;45.606;5.302;2024-02-15T02:40:20;7.93;;;4.70;;
23390;SDS011;11868;45.606;5.302;2024-02-15T02:42:53;12.25;;;4.25;;
23390;SDS011;11868;45.606;5.302;2024-02-15T02:45:21;11.52;;;4.43;;
23390;SDS011;11868;45.606;5.302;2024-02-15T02:47:48;8.85;;;4.95;;
23390;SDS011;11868;45.606;5.302;2024-02-15T02:50:13;14.77;;;5.00;;
23390;SDS011;11868;45.606;5.302;2024-02-15T02:52:39;6.47;;;4.53;;
23390;SDS011;11868;45.606;5.302;2024-02-15T02:55:05;8.13;;;4.15;;
23390;SDS011;11868;45.606;5.302;2024-02-15T02:57:34;9.70;;;4.25;;
23390;SDS011;11868;45.606;5.302;2024-02-15T03:00:05;7.03;;;4.45;;
23390;SDS011;11868;45.606;5.302;2024-02-15T03:02:40;8.93;;;5.38;;
23390;SDS011;11868;45.606;5.302;2024-02-15T03:05:07;9.13;;;5.22;;
23390;SDS011;11868;45.606;5.302;2024-02-15T03:07:33;12.52;;;5.40;;
23390;SDS011;11868;45.606;5.302;2024-02-15T03:09:59;11.55;;;6.75;;
23390;SDS011;11868;45.606;5.302;2024-02-15T03:12:37;13.32;;;7.38;;
23390;SDS011;11868;45.606;5.302;2024-02-15T03:15:05;15.25;;;7.80;;
23390;SDS011;11868;45.606;5.302;2024-02-15T03:17:37;8.75;;;6.03;;
23390;SDS011;11868;45.606;5.302;2024-02-15T03:20:04;9.98;;;6.03;;
23390;SDS011;11868;45.606;5.302;2024-02-15T03:22:55;15.68;;;6.20;;
23390;SDS011;11868;45.606;5.302;2024-02-15T03:25:24;11.90;;;5.78;;
23390;SDS011;11868;45.606;5.302;2024-02-15T03:27:54;9.80;;;5.85;;
23390;SDS011;11868;45.606;5.302;2024-02-15T03:30:21;12.38;;;6.25;;
23390;SDS011;11868;45.606;5.302;2024-02-15T03:32:47;10.27;;;5.93;;
23390;SDS011;11868;45.606;5.302;2024-02-15T03:35:13;10.25;;;6.53;;
23390;SDS011;11868;45.606;5.302;2024-02-15T03:37:40;10.85;;;6.15;;
23390;SDS011;11868;45.606;5.302;2024-02-15T03:40:06;10.88;;;6.72;;
23390;SDS011;11868;45.606;5.302;2024-02-15T03:42:33;15.88;;;6.88;;
23390;SDS011;11868;45.606;5.302;2024-02-15T03:45:01;11.97;;;6.40;;
23390;SDS011;11868;45.606;5.302;2024-02-15T03:47:33;13.70;;;5.95;;
23390;SDS011;11868;45.606;5.302;2024-02-15T03:49:59;12.13;;;6.72;;
23390;SDS011;11868;45.606;5.302;2024-02-15T03:52:25;12.13;;;6.30;;
23390;SDS011;11868;45.606;5.302;2024-02-15T03:54:50;14.98;;;6.88;;
23390;SDS011;11868;45.606;5.302;2024-02-15T03:57:17;12.30;;;6.20;;
23390;SDS011;11868;45.606;5.302;2024-02-15T03:59:43;10.30;;;5.68;;
23390;SDS011;11868;45.606;5.302;2024-02-15T04:02:08;12.98;;;5.57;;
23390;SDS011;11868;45.606;5.302;2024-02-15T04:04:39;9.55;;;6.13;;
23390;SDS011;11868;45.606;5.302;2024-02-15T04:07:07;10.25;;;5.32;;
23390;SDS011;11868;45.606;5.302;2024-02-15T04:09:32;13.82;;;5.75;;
23390;SDS011;11868;45.606;5.302;2024-02-15T04:12:00;12.35;;;5.65;;
23390;SDS011;11868;45.606;5.302;2024-02-15T04:14:26;10.88;;;5.97;;
23390;SDS011;11868;45.606;5.302;2024-02-15T04:16:51;12.27;;;6.03;;
23390;SDS011;11868;45.606;5.302;2024-02-15T04:19:16;10.77;;;5.93;;
23390;SDS011;11868;45.606;5.302;2024-02-15T04:21:44;11.85;;;5.60;;
23390;SDS011;11868;45.606;5.302;2024-02-15T04:24:11;11.63;;;6.10;;
23390;SDS011;11868;45.606;5.302;2024-02-15T04:26:36;8.52;;;5.60;;
23390;SDS011;11868;45.606;5.302;2024-02-15T04:29:02;9.48;;;4.88;;
23390;SDS011;11868;45.606;5.302;2024-02-15T04:31:28;9.73;;;5.15;;
23390;SDS011;11868;45.606;5.302;2024-02-15T04:33:54;11.07;;;5.30;;
23390;SDS011;11868;45.606;5.302;2024-02-15T04:36:19;9.18;;;5.35;;
23390;SDS011;11868;45.606;5.302;2024-02-15T04:38:49;10.25;;;5.28;;
23390;SDS011;11868;45.606;5.302;2024-02-15T04:41:15;9.48;;;5.13;;
23390;SDS011;11868;45.606;5.302;2024-02-15T04:43:45;9.40;;;5.55;;
23390;SDS011;11868;45.606;5.302;2024-02-15T04:46:11;11.32;;;5.32;;
23390;SDS011;11868;45.606;5.302;2024-02-15T04:48:38;8.73;;;5.00;;
23390;SDS011;11868;45.606;5.302;2024-02-15T04:51:04;8.13;;;4.40;;
23390;SDS011;11868;45.606;5.302;2024-02-15T04:53:30;9.80;;;4.80;;
23390;SDS011;11868;45.606;5.302;2024-02-15T04:55:55;13.23;;;4.70;;
23390;SDS011;11868;45.606;5.302;2024-02-15T04:58:21;10.55;;;4.65;;
23390;SDS011;11868;45.606;5.302;2024-02-15T05:00:46;11.43;;;4.18;;
23390;SDS011;11868;45.606;5.302;2024-02-15T05:03:13;6.55;;;4.00;;
23390;SDS011;11868;45.606;5.302;2024-02-15T05:05:39;8.85;;;5.00;;
23390;SDS011;11868;45.606;5.302;2024-02-15T05:08:04;9.40;;;4.93;;
23390;SDS011;11868;45.606;5.302;2024-02-15T05:10:29;10.82;;;5.50;;
23390;SDS011;11868;45.606;5.302;2024-02-15T05:12:55;9.52;;;5.28;;
23390;SDS011;11868;45.606;5.302;2024-02-15T05:15:21;10.43;;;5.30;;
23390;SDS011;11868;45.606;5.302;2024-02-15T05:17:49;11.13;;;5.07;;
23390;SDS011;11868;45.606;5.302;2024-02-15T05:20:15;9.40;;;5.03;;
23390;SDS011;11868;45.606;5.302;2024-02-15T05:22:40;8.60;;;5.03;;
23390;SDS011;11868;45.606;5.302;2024-02-15T05:25:10;8.63;;;4.78;;
23390;SDS011;11868;45.606;5.302;2024-02-15T05:27:37;11.50;;;6.22;;
23390;SDS011;11868;45.606;5.302;2024-02-15T05:30:03;13.55;;;6.53;;
23390;SDS011;11868;45.606;5.302;2024-02-15T05:32:32;12.73;;;6.15;;
23390;SDS011;11868;45.606;5.302;2024-02-15T05:34:58;13.82;;;6.18;;
23390;SDS011;11868;45.606;5.302;2024-02-15T05:37:23;11.90;;;6.10;;
23390;SDS011;11868;45.606;5.302;2024-02-15T05:39:49;12.60;;;6.32;;
23390;SDS011;11868;45.606;5.302;2024-02-15T05:42:18;13.05;;;6.30;;
23390;SDS011;11868;45.606;5.302;2024-02-15T05:44:44;12.60;;;6.40;;
23390;SDS011;11868;45.606;5.302;2024-02-15T05:47:10;11.13;;;6.28;;
23390;SDS011;11868;45.606;5.302;2024-02-15T05:49:36;9.23;;;5.68;;
23390;SDS011;11868;45.606;5.302;2024-02-15T05:52:02;7.03;;;4.95;;
23390;SDS011;11868;45.606;5.302;2024-02-15T05:54:27;12.63;;;6.30;;
23390;SDS011;11868;45.606;5.302;2024-02-15T05:56:53;9.98;;;6.05;;
23390;SDS011;11868;45.606;5.302;2024-02-15T05:59:20;11.70;;;5.95;;
23390;SDS011;11868;45.606;5.302;2024-02-15T06:01:46;8.40;;;5.45;;
23390;SDS011;11868;45.606;5.302;2024-02-15T06:04:13;9.68;;;6.03;;
23390;SDS011;11868;45.606;5.302;2024-02-15T06:06:40;10.70;;;5.43;;
23390;SDS011;11868;45.606;5.302;2024-02-15T06:09:05;8.20;;;5.00;;
23390;SDS011;11868;45.606;5.302;2024-02-15T06:11:30;7.97;;;4.03;;
23390;SDS011;11868;45.606;5.302;2024-02-15T06:13:56;7.15;;;3.70;;
23390;SDS011;11868;45.606;5.302;2024-02-15T06:16:21;10.70;;;3.97;;
23390;SDS011;11868;45.606;5.302;2024-02-15T06:18:46;8.07;;;3.78;;
23390;SDS011;11868;45.606;5.302;2024-02-15T06:21:13;5.30;;;3.25;;
23390;SDS011;11868;45.606;5.302;2024-02-15T06:23:38;5.88;;;3.38;;
23390;SDS011;11868;45.606;5.302;2024-02-15T06:26:03;5.43;;;2.95;;
23390;SDS011;11868;45.606;5.302;2024-02-15T06:28:29;8.45;;;2.90;;
23390;SDS011;11868;45.606;5.302;2024-02-15T06:31:13;5.43;;;2.80;;
23390;SDS011;11868;45.606;5.302;2024-02-15T06:33:57;8.48;;;2.88;;
23390;SDS011;11868;45.606;5.302;2024-02-15T06:36:51;4.35;;;2.42;;
23390;SDS011;11868;45.606;5.302;2024-02-15T06:39:36;5.32;;;2.63;;
23390;SDS011;11868;45.606;5.302;2024-02-15T06:42:13;4.88;;;2.70;;
23390;SDS011;11868;45.606;5.302;2024-02-15T06:44:47;8.18;;;2.83;;
23390;SDS011;11868;45.606;5.302;2024-02-15T06:47:13;5.70;;;2.72;;
23390;SDS011;11868;45.606;5.302;2024-02-15T06:49:42;4.77;;;2.70;;
23390;SDS011;11868;45.606;5.302;2024-02-15T06:52:10;5.93;;;3.00;;
23390;SDS011;11868;45.606;5.302;2024-02-15T06:54:39;6.93;;;2.70;;
23390;SDS011;11868;45.606;5.302;2024-02-15T06:57:05;7.32;;;2.88;;
23390;SDS011;11868;45.606;5.302;2024-02-15T06:59:31;7.28;;;2.72;;
23390;SDS011;11868;45.606;5.302;2024-02-15T07:02:00;5.53;;;2.88;;
23390;SDS011;11868;45.606;5.302;2024-02-15T07:06:51;4.93;;;2.80;;
23390;SDS011;11868;45.606;5.302;2024-02-15T07:09:19;7.75;;;3.22;;
23390;SDS011;11868;45.606;5.302;2024-02-15T07:11:45;6.22;;;3.00;;
23390;SDS011;11868;45.606;5.302;2024-02-15T07:14:11;6.53;;;3.28;;
23390;SDS011;11868;45.606;5.302;2024-02-15T07:16:43;4.35;;;2.90;;
23390;SDS011;11868;45.606;5.302;2024-02-15T07:19:10;6.25;;;3.08;;
23390;SDS011;11868;45.606;5.302;2024-02-15T07:21:36;6.20;;;2.83;;
23390;SDS011;11868;45.606;5.302;2024-02-15T07:24:02;9.02;;;3.65;;
23390;SDS011;11868;45.606;5.302;2024-02-15T07:26:29;6.55;;;3.28;;
23390;SDS011;11868;45.606;5.302;2024-02-15T07:28:55;6.20;;;2.75;;
23390;SDS011;11868;45.606;5.302;2024-02-15T07:31:20;12.95;;;3.50;;
23390;SDS011;11868;45.606;5.302;2024-02-15T07:33:46;6.20;;;3.13;;
23390;SDS011;11868;45.606;5.302;2024-02-15T07:36:13;6.30;;;3.25;;
23390;SDS011;11868;45.606;5.302;2024-02-15T07:38:43;5.90;;;2.83;;
23390;SDS011;11868;45.606;5.302;2024-02-15T07:41:10;6.78;;;2.92;;
23390;SDS011;11868;45.606;5.302;2024-02-15T07:43:36;9.20;;;2.95;;
23390;SDS011;11868;45.606;5.302;2024-02-15T07:46:01;7.28;;;2.95;;
23390;SDS011;11868;45.606;5.302;2024-02-15T07:48:26;9.07;;;3.00;;
23390;SDS011;11868;45.606;5.302;2024-02-15T07:50:52;8.05;;;3.08;;
23390;SDS011;11868;45.606;5.302;2024-02-15T07:53:18;5.97;;;2.47;;
23390;SDS011;11868;45.606;5.302;2024-02-15T07:55:44;5.32;;;2.60;;
23390;SDS011;11868;45.606;5.302;2024-02-15T07:58:10;7.72;;;3.35;;
23390;SDS011;11868;45.606;5.302;2024-02-15T08:00:35;8.10;;;4.95;;
23390;SDS011;11868;45.606;5.302;2024-02-15T08:03:02;12.70;;;6.50;;
23390;SDS011;11868;45.606;5.302;2024-02-15T08:05:28;12.13;;;3.38;;
23390;SDS011;11868;45.606;5.302;2024-02-15T08:07:53;11.65;;;4.85;;
23390;SDS011;11868;45.606;5.302;2024-02-15T08:10:22;8.10;;;4.03;;
23390;SDS011;11868;45.606;5.302;2024-02-15T08:12:47;7.32;;;4.20;;
23390;SDS011;11868;45.606;5.302;2024-02-15T08:15:17;13.23;;;4.30;;
23390;SDS011;11868;45.606;5.302;2024-02-15T08:17:43;8.52;;;4.38;;
23390;SDS011;11868;45.606;5.302;2024-02-15T08:20:13;8.25;;;3.70;;
23390;SDS011;11868;45.606;5.302;2024-02-15T08:22:39;8.77;;;4.47;;
23390;SDS011;11868;45.606;5.302;2024-02-15T08:25:11;6.03;;;3.90;;
23390;SDS011;11868;45.606;5.302;2024-02-15T08:27:38;8.35;;;3.75;;
23390;SDS011;11868;45.606;5.302;2024-02-15T08:30:10;8.07;;;4.15;;
23390;SDS011;11868;45.606;5.302;2024-02-15T08:32:39;10.32;;;4.50;;
23390;SDS011;11868;45.606;5.302;2024-02-15T08:35:07;12.85;;;4.60;;
23390;SDS011;11868;45.606;5.302;2024-02-15T08:37:33;7.55;;;4.00;;
23390;SDS011;11868;45.606;5.302;2024-02-15T08:40:03;11.02;;;6.05;;
23390;SDS011;11868;45.606;5.302;2024-02-15T08:42:29;11.30;;;4.55;;
23390;SDS011;11868;45.606;5.302;2024-02-15T08:44:55;6.90;;;4.18;;
23390;SDS011;11868;45.606;5.302;2024-02-15T08:47:20;7.68;;;4.38;;
23390;SDS011;11868;45.606;5.302;2024-02-15T08:49:46;9.48;;;4.45;;
23390;SDS011;11868;45.606;5.302;2024-02-15T08:52:11;6.57;;;3.97;;
23390;SDS011;11868;45.606;5.302;2024-02-15T08:54:37;8.45;;;4.50;;
23390;SDS011;11868;45.606;5.302;2024-02-15T08:57:04;8.07;;;4.30;;
23390;SDS011;11868;45.606;5.302;2024-02-15T08:59:29;6.93;;;3.75;;
23390;SDS011;11868;45.606;5.302;2024-02-15T09:01:55;8.05;;;4.80;;
23390;SDS011;11868;45.606;5.302;2024-02-15T09:04:22;9.00;;;4.25;;
23390;SDS011;11868;45.606;5.302;2024-02-15T09:06:49;7.35;;;3.92;;
23390;SDS011;11868;45.606;5.302;2024-02-15T09:09:15;9.57;;;4.60;;
23390;SDS011;11868;45.606;5.302;2024-02-15T09:11:41;7.22;;;4.03;;
23390;SDS011;11868;45.606;5.302;2024-02-15T09:14:06;10.10;;;4.20;;
23390;SDS011;11868;45.606;5.302;2024-02-15T09:16:35;7.93;;;3.97;;
23390;SDS011;11868;45.606;5.302;2024-02-15T09:19:00;6.70;;;3.60;;
23390;SDS011;11868;45.606;5.302;2024-02-15T09:21:26;9.02;;;3.53;;
23390;SDS011;11868;45.606;5.302;2024-02-15T09:23:54;8.93;;;4.22;;
23390;SDS011;11868;45.606;5.302;2024-02-15T09:26:19;7.30;;;4.15;;
23390;SDS011;11868;45.606;5.302;2024-02-15T09:28:45;5.47;;;3.70;;
23390;SDS011;11868;45.606;5.302;2024-02-15T09:31:14;9.27;;;3.90;;
23390;SDS011;11868;45.606;5.302;2024-02-15T09:33:40;13.45;;;4.40;;
23390;SDS011;11868;45.606;5.302;2024-02-15T09:36:05;8.32;;;4.13;;
23390;SDS011;11868;45.606;5.302;2024-02-15T09:38:31;7.38;;;4.07;;
23390;SDS011;11868;45.606;5.302;2024-02-15T09:40:56;9.73;;;4.43;;
23390;SDS011;11868;45.606;5.302;2024-02-15T09:43:22;8.93;;;4.30;;
23390;SDS011;11868;45.606;5.302;2024-02-15T09:45:51;8.55;;;4.10;;
23390;SDS011;11868;45.606;5.302;2024-02-15T09:48:17;10.88;;;4.25;;
23390;SDS011;11868;45.606;5.302;2024-02-15T09:50:43;8.05;;;4.15;;
23390;SDS011;11868;45.606;5.302;2024-02-15T09:53:11;9.40;;;4.32;;
23390;SDS011;11868;45.606;5.302;2024-02-15T09:55:38;9.77;;;4.40;;
23390;SDS011;11868;45.606;5.302;2024-02-15T10:00:31;8.98;;;4.00;;
23390;SDS011;11868;45.606;5.302;2024-02-15T10:02:57;6.68;;;3.92;;
23390;SDS011;11868;45.606;5.302;2024-02-15T10:05:23;6.00;;;3.42;;
23390;SDS011;11868;45.606;5.302;2024-02-15T10:07:48;7.70;;;3.45;;
23390;SDS011;11868;45.606;5.302;2024-02-15T10:10:14;11.73;;;4.47;;
23390;SDS011;11868;45.606;5.302;2024-02-15T10:12:41;8.30;;;3.88;;
23390;SDS011;11868;45.606;5.302;2024-02-15T10:15:08;5.93;;;3.40;;
23390;SDS011;11868;45.606;5.302;2024-02-15T10:17:34;5.63;;;3.40;;
23390;SDS011;11868;45.606;5.302;2024-02-15T10:20:04;4.90;;;3.42;;
23390;SDS011;11868;45.606;5.302;2024-02-15T10:22:35;7.95;;;3.63;;
23390;SDS011;11868;45.606;5.302;2024-02-15T10:25:13;8.02;;;3.78;;
23390;SDS011;11868;45.606;5.302;2024-02-15T10:27:39;7.63;;;3.70;;
23390;SDS011;11868;45.606;5.302;2024-02-15T10:30:15;5.80;;;3.67;;
23390;SDS011;11868;45.606;5.302;2024-02-15T10:32:41;4.40;;;3.22;;
23390;SDS011;11868;45.606;5.302;2024-02-15T10:35:08;5.95;;;3.63;;
23390;SDS011;11868;45.606;5.302;2024-02-15T10:37:33;10.25;;;4.30;;
23390;SDS011;11868;45.606;5.302;2024-02-15T10:40:05;8.60;;;3.72;;
23390;SDS011;11868;45.606;5.302;2024-02-15T10:42:32;7.10;;;3.35;;
23390;SDS011;11868;45.606;5.302;2024-02-15T10:44:59;5.90;;;3.63;;
23390;SDS011;11868;45.606;5.302;2024-02-15T10:47:29;8.98;;;3.30;;
23390;SDS011;11868;45.606;5.302;2024-02-15T10:49:55;9.98;;;4.07;;
23390;SDS011;11868;45.606;5.302;2024-02-15T10:52:21;7.10;;;3.55;;
23390;SDS011;11868;45.606;5.302;2024-02-15T10:55:04;6.57;;;3.45;;
23390;SDS011;11868;45.606;5.302;2024-02-15T10:57:38;6.43;;;3.08;;
23390;SDS011;11868;45.606;5.302;2024-02-15T11:00:05;6.15;;;3.40;;
23390;SDS011;11868;45.606;5.302;2024-02-15T11:02:41;4.60;;;3.10;;
23390;SDS011;11868;45.606;5.302;2024-02-15T11:05:08;4.60;;;2.95;;
23390;SDS011;11868;45.606;5.302;2024-02-15T11:07:35;6.15;;;2.92;;
23390;SDS011;11868;45.606;5.302;2024-02-15T11:10:01;6.15;;;2.80;;
23390;SDS011;11868;45.606;5.302;2024-02-15T11:12:27;6.63;;;2.83;;
23390;SDS011;11868;45.606;5.302;2024-02-15T11:14:53;7.35;;;2.85;;
23390;SDS011;11868;45.606;5.302;2024-02-15T11:20:08;6.65;;;3.60;;
23390;SDS011;11868;45.606;5.302;2024-02-15T11:22:36;6.05;;;3.22;;
23390;SDS011;11868;45.606;5.302;2024-02-15T11:25:05;6.78;;;3.25;;
23390;SDS011;11868;45.606;5.302;2024-02-15T11:27:36;11.45;;;3.60;;
23390;SDS011;11868;45.606;5.302;2024-02-15T11:30:03;4.13;;;2.70;;
23390;SDS011;11868;45.606;5.302;2024-02-15T11:42:49;7.63;;;2.65;;
23390;SDS011;11868;45.606;5.302;2024-02-15T11:45:17;8.60;;;2.53;;
23390;SDS011;11868;45.606;5.302;2024-02-15T11:47:44;4.65;;;2.42;;
23390;SDS011;11868;45.606;5.302;2024-02-15T11:50:14;6.75;;;4.55;;
23390;SDS011;11868;45.606;5.302;2024-02-15T11:52:42;3.60;;;2.55;;
23390;SDS011;11868;45.606;5.302;2024-02-15T11:55:13;5.93;;;2.75;;
23390;SDS011;11868;45.606;5.302;2024-02-15T11:57:40;4.57;;;2.30;;
23390;SDS011;11868;45.606;5.302;2024-02-15T12:00:22;6.65;;;2.40;;
23390;SDS011;11868;45.606;5.302;2024-02-15T12:03:06;5.78;;;2.72;;
23390;SDS011;11868;45.606;5.302;2024-02-15T12:05:51;5.07;;;2.08;;
23390;SDS011;11868;45.606;5.302;2024-02-15T12:08:35;4.28;;;2.28;;
23390;SDS011;11868;45.606;5.302;2024-02-15T12:11:19;6.68;;;2.60;;
23390;SDS011;11868;45.606;5.302;2024-02-15T12:14:03;4.38;;;2.00;;
23390;SDS011;11868;45.606;5.302;2024-02-15T12:16:47;4.63;;;1.95;;
23390;SDS011;11868;45.606;5.302;2024-02-15T12:19:42;6.22;;;2.53;;
23390;SDS011;11868;45.606;5.302;2024-02-15T12:22:08;5.70;;;2.13;;
23390;SDS011;11868;45.606;5.302;2024-02-15T12:24:34;6.60;;;1.88;;
23390;SDS011;11868;45.606;5.302;2024-02-15T12:27:00;5.78;;;2.17;;
23390;SDS011;11868;45.606;5.302;2024-02-15T12:29:28;6.95;;;1.92;;
23390;SDS011;11868;45.606;5.302;2024-02-15T12:31:54;5.60;;;1.90;;
23390;SDS011;11868;45.606;5.302;2024-02-15T12:34:20;4.20;;;2.00;;
23390;SDS011;11868;45.606;5.302;2024-02-15T12:36:45;5.93;;;2.00;;
23390;SDS011;11868;45.606;5.302;2024-02-15T12:39:11;5.43;;;2.00;;
23390;SDS011;11868;45.606;5.302;2024-02-15T12:41:40;4.40;;;1.90;;
23390;SDS011;11868;45.606;5.302;2024-02-15T12:44:09;7.07;;;2.08;;
23390;SDS011;11868;45.606;5.302;2024-02-15T12:46:35;5.43;;;2.08;;
23390;SDS011;11868;45.606;5.302;2024-02-15T12:51:52;5.03;;;1.80;;
23390;SDS011;11868;45.606;5.302;2024-02-15T12:54:19;6.32;;;2.20;;
23390;SDS011;11868;45.606;5.302;2024-02-15T12:56:46;7.65;;;2.15;;
23390;SDS011;11868;45.606;5.302;2024-02-15T12:59:13;8.90;;;2.95;;
23390;SDS011;11868;45.606;5.302;2024-02-15T13:01:39;7.30;;;2.22;;
23390;SDS011;11868;45.606;5.302;2024-02-15T13:04:04;4.68;;;1.83;;
23390;SDS011;11868;45.606;5.302;2024-02-15T13:06:31;3.63;;;1.58;;
23390;SDS011;11868;45.606;5.302;2024-02-15T13:08:59;2.63;;;1.42;;
23390;SDS011;11868;45.606;5.302;2024-02-15T13:11:25;5.30;;;2.22;;
23390;SDS011;11868;45.606;5.302;2024-02-15T13:13:51;8.05;;;1.60;;
23390;SDS011;11868;45.606;5.302;2024-02-15T13:16:16;5.90;;;1.70;;
23390;SDS011;11868;45.606;5.302;2024-02-15T13:18:43;3.00;;;1.83;;
23390;SDS011;11868;45.606;5.302;2024-02-15T13:21:11;10.65;;;1.95;;
23390;SDS011;11868;45.606;5.302;2024-02-15T13:23:37;7.70;;;2.10;;
23390;SDS011;11868;45.606;5.302;2024-02-15T13:26:02;6.85;;;1.83;;
23390;SDS011;11868;45.606;5.302;2024-02-15T13:28:29;7.50;;;2.20;;
23390;SDS011;11868;45.606;5.302;2024-02-15T13:30:55;5.65;;;2.00;;
23390;SDS011;11868;45.606;5.302;2024-02-15T13:33:21;10.25;;;1.90;;
23390;SDS011;11868;45.606;5.302;2024-02-15T13:35:46;5.13;;;1.50;;
23390;SDS011;11868;45.606;5.302;2024-02-15T13:38:14;5.20;;;1.75;;
23390;SDS011;11868;45.606;5.302;2024-02-15T13:40:47;7.85;;;1.90;;
23390;SDS011;11868;45.606;5.302;2024-02-15T13:43:14;4.78;;;1.50;;
23390;SDS011;11868;45.606;5.302;2024-02-15T13:45:42;3.97;;;1.70;;
23390;SDS011;11868;45.606;5.302;2024-02-15T13:48:09;6.22;;;1.70;;
23390;SDS011;11868;45.606;5.302;2024-02-15T13:50:35;6.28;;;2.00;;
23390;SDS011;11868;45.606;5.302;2024-02-15T13:53:01;7.70;;;2.10;;
23390;SDS011;11868;45.606;5.302;2024-02-15T13:55:27;5.70;;;1.75;;
23390;SDS011;11868;45.606;5.302;2024-02-15T13:57:53;6.72;;;1.60;;
23390;SDS011;11868;45.606;5.302;2024-02-15T14:00:20;3.15;;;1.77;;
23390;SDS011;11868;45.606;5.302;2024-02-15T14:02:55;10.10;;;2.35;;
23390;SDS011;11868;45.606;5.302;2024-02-15T14:05:23;5.70;;;2.15;;
23390;SDS011;11868;45.606;5.302;2024-02-15T14:07:50;7.28;;;1.67;;
23390;SDS011;11868;45.606;5.302;2024-02-15T14:10:20;7.63;;;2.38;;
23390;SDS011;11868;45.606;5.302;2024-02-15T14:12:49;11.02;;;2.35;;
23390;SDS011;11868;45.606;5.302;2024-02-15T14:15:26;4.55;;;2.00;;
23390;SDS011;11868;45.606;5.302;2024-02-15T14:17:52;8.65;;;2.40;;
23390;SDS011;11868;45.606;5.302;2024-02-15T14:20:17;5.00;;;1.80;;
23390;SDS011;11868;45.606;5.302;2024-02-15T14:22:45;5.85;;;1.95;;
23390;SDS011;11868;45.606;5.302;2024-02-15T14:25:14;6.82;;;2.13;;
23390;SDS011;11868;45.606;5.302;2024-02-15T14:27:39;7.10;;;2.33;;
23390;SDS011;11868;45.606;5.302;2024-02-15T14:30:05;3.83;;;1.95;;
23390;SDS011;11868;45.606;5.302;2024-02-15T14:32:50;6.15;;;2.13;;
23390;SDS011;11868;45.606;5.302;2024-02-15T14:35:37;7.82;;;1.90;;
23390;SDS011;11868;45.606;5.302;2024-02-15T14:38:05;6.35;;;2.33;;
23390;SDS011;11868;45.606;5.302;2024-02-15T14:40:36;6.47;;;2.95;;
23390;SDS011;11868;45.606;5.302;2024-02-15T14:43:03;9.20;;;2.17;;
23390;SDS011;11868;45.606;5.302;2024-02-15T14:45:39;7.80;;;2.10;;
23390;SDS011;11868;45.606;5.302;2024-02-15T14:48:08;4.55;;;1.77;;
23390;SDS011;11868;45.606;5.302;2024-02-15T14:50:38;9.20;;;2.10;;
23390;SDS011;11868;45.606;5.302;2024-02-15T14:53:07;6.97;;;2.25;;
23390;SDS011;11868;45.606;5.302;2024-02-15T14:55:33;7.50;;;2.38;;
23390;SDS011;11868;45.606;5.302;2024-02-15T14:57:59;4.55;;;1.67;;
23390;SDS011;11868;45.606;5.302;2024-02-15T15:00:24;6.00;;;2.13;;
23390;SDS011;11868;45.606;5.302;2024-02-15T15:02:51;4.78;;;1.75;;
23390;SDS011;11868;45.606;5.302;2024-02-15T15:05:18;4.68;;;2.33;;
23390;SDS011;11868;45.606;5.302;2024-02-15T15:08:02;7.05;;;2.58;;
23390;SDS011;11868;45.606;5.302;2024-02-15T15:10:46;4.60;;;2.22;;